Time;durP1;ratioP1;P1;durP2;ratioP2;P2;SDS_P1;SDS_P2;PMS_P1;PMS_P2;Temp;Humidity;BMP_temperature;BMP_pressure;BME280_temperature;BME280_humidity;BME280_pressure;Samples;Min_cycle;Max_cycle;Signal;HPM_P1;HPM_P2
2023/09/12 00:00:54;;;;;;;7.00;3.78;;;18.70;99.90;;;;;;5090674;28;20024;-60
2023/09/12 00:03:21;;;;;;;6.72;3.35;;;15.30;99.90;;;;;;5090321;28;20110;-61
2023/09/12 00:05:52;;;;;;;7.95;3.45;;;15.10;99.90;;;;;;5090462;28;20039;-57
2023/09/12 00:08:17;;;;;;;8.57;3.08;;;20.10;99.90;;;;;;5090143;28;20119;-59
2023/09/12 00:10:43;;;;;;;6.70;3.15;;;20.50;99.90;;;;;;5090712;28;20107;-60
2023/09/12 00:13:08;;;;;;;8.32;3.88;;;17.20;99.90;;;;;;5090644;28;20032;-56
2023/09/12 00:15:34;;;;;;;11.63;4.15;;;18.10;99.90;;;;;;5090589;28;20060;-59
2023/09/12 00:18:00;;;;;;;10.18;4.57;;;;;;;;;;5090400;28;20020;-61
2023/09/12 00:20:25;;;;;;;11.77;4.43;;;20.30;99.90;;;;;;5090258;28;20025;-60
2023/09/12 00:22:53;;;;;;;12.57;4.85;;;19.20;99.90;;;;;;5091544;28;20383;-62
2023/09/12 00:25:18;;;;;;;11.32;4.55;;;19.80;99.90;;;;;;5094306;28;20036;-57
2023/09/12 00:27:44;;;;;;;11.40;4.68;;;15.10;99.90;;;;;;5094312;28;20094;-57
2023/09/12 00:30:10;;;;;;;11.60;4.90;;;18.20;99.90;;;;;;5094224;28;20024;-49
2023/09/12 00:32:36;;;;;;;7.60;3.65;;;;;;;;;;5094104;28;20055;-58
2023/09/12 00:35:02;;;;;;;7.68;3.58;;;;;;;;;;5126983;27;20050;-61
2023/09/12 00:37:28;;;;;;;6.88;3.47;;;18.40;99.90;;;;;;5093947;28;20418;-57
2023/09/12 00:39:53;;;;;;;6.43;3.88;;;18.80;99.90;;;;;;5094195;28;20028;-60
2023/09/12 00:42:19;;;;;;;7.53;3.40;;;14.40;99.90;;;;;;5094011;28;20036;-48
2023/09/12 00:44:44;;;;;;;8.25;3.78;;;18.80;99.90;;;;;;5093745;28;20024;-62
2023/09/12 00:47:11;;;;;;;7.50;4.25;;;18.10;99.90;;;;;;5093933;28;20028;-60
2023/09/12 00:49:38;;;;;;;8.80;4.20;;;18.90;99.90;;;;;;5093731;28;20024;-62
2023/09/12 00:52:04;;;;;;;8.55;4.18;;;15.10;99.90;;;;;;5093805;28;20075;-58
2023/09/12 00:54:30;;;;;;;12.55;4.72;;;;;;;;;;5093915;28;20089;-49
2023/09/12 00:56:56;;;;;;;12.18;5.32;;;18.10;99.90;;;;;;5093881;28;20020;-53
2023/09/12 00:59:22;;;;;;;15.63;6.53;;;15.00;99.90;;;;;;5093856;28;20492;-48
2023/09/12 01:01:48;;;;;;;17.27;6.45;;;19.20;99.90;;;;;;5126445;27;20153;-60
2023/09/12 01:04:14;;;;;;;16.52;7.15;;;;;;;;;;5093615;28;20054;-57
2023/09/12 01:06:40;;;;;;;22.77;7.65;;;17.10;99.90;;;;;;5093514;28;20103;-59
2023/09/12 01:09:07;;;;;;;17.27;6.97;;;;;;;;;;5093476;28;20112;-53
2023/09/12 01:11:33;;;;;;;22.65;7.95;;;;;;;;;;5093479;28;20547;-54
2023/09/12 01:13:59;;;;;;;20.20;8.82;;;;;;;;;;5093143;28;20097;-58
2023/09/12 01:16:25;;;;;;;17.20;7.43;;;15.20;99.90;;;;;;5093599;28;20052;-58
2023/09/12 01:18:50;;;;;;;19.50;8.13;;;15.10;99.90;;;;;;5126142;27;20388;-63
2023/09/12 01:21:52;;;;;;;16.98;7.28;;;15.60;99.90;;;;;;5093248;28;20104;-49
2023/09/12 01:24:36;;;;;;;21.52;8.18;;;19.60;99.90;;;;;;5093112;28;20051;-58
2023/09/12 01:27:38;;;;;;;21.95;8.35;;;19.40;99.90;;;;;;5093130;28;20024;-61
2023/09/12 01:30:08;;;;;;;29.88;8.55;;;15.50;99.90;;;;;;5093201;28;20095;-53
2023/09/12 01:32:35;;;;;;;22.80;7.57;;;18.10;99.90;;;;;;5093042;28;20110;-56
2023/09/12 01:35:04;;;;;;;20.58;8.25;;;20.00;99.90;;;;;;5092070;28;20032;-59
2023/09/12 01:37:31;;;;;;;22.23;8.80;;;18.00;99.90;;;;;;5096866;28;20516;-57
2023/09/12 01:39:57;;;;;;;21.98;8.50;;;19.30;99.90;;;;;;5102479;28;20024;-59
2023/09/12 01:42:23;;;;;;;19.88;8.40;;;;;;;;;;5092429;28;20055;-61
2023/09/12 01:44:55;;;;;;;22.48;8.43;;;19.20;99.90;;;;;;5092685;28;20024;-61
2023/09/12 01:47:22;;;;;;;21.13;8.18;;;18.00;99.90;;;;;;5091509;28;20020;-59
2023/09/12 01:49:52;;;;;;;22.92;7.93;;;14.60;99.90;;;;;;5092696;28;20023;-57
2023/09/12 01:52:19;;;;;;;20.55;7.93;;;15.50;99.90;;;;;;5092750;28;20024;-60
2023/09/12 01:54:46;;;;;;;22.45;8.00;;;14.80;99.90;;;;;;5092351;28;20040;-60
2023/09/12 01:57:13;;;;;;;21.13;7.45;;;;;;;;;;5092644;28;20028;-60
2023/09/12 01:59:38;;;;;;;22.35;8.15;;;19.20;99.90;;;;;;5092397;28;20027;-51
2023/09/12 02:02:04;;;;;;;25.35;8.55;;;19.20;99.90;;;;;;5092525;28;20024;-59
2023/09/12 02:04:29;;;;;;;21.00;8.57;;;19.90;99.90;;;;;;5092298;28;20031;-55
2023/09/12 02:06:55;;;;;;;20.83;8.40;;;19.20;99.90;;;;;;5092324;28;20016;-61
2023/09/12 02:09:20;;;;;;;23.48;8.25;;;19.10;99.90;;;;;;5092296;28;20503;-57
2023/09/12 02:11:47;;;;;;;22.60;9.15;;;;;;;;;;5092237;28;20079;-57
2023/09/12 02:14:13;;;;;;;27.48;8.70;;;;;;;;;;5092016;28;20434;-49
2023/09/12 02:16:38;;;;;;;24.67;9.23;;;18.40;99.90;;;;;;5092028;28;20049;-57
2023/09/12 02:19:05;;;;;;;25.10;9.88;;;19.00;99.90;;;;;;5092145;28;20051;-54
2023/09/12 02:21:31;;;;;;;25.15;9.48;;;;;;;;;;5092200;28;20077;-57
2023/09/12 02:23:57;;;;;;;23.85;8.63;;;18.90;99.90;;;;;;5091766;28;20040;-55
2023/09/12 02:26:22;;;;;;;22.00;8.75;;;16.80;99.90;;;;;;5092071;28;20489;-61
2023/09/12 02:28:48;;;;;;;27.17;9.07;;;;;;;;;;5091987;28;20048;-52
2023/09/12 02:31:14;;;;;;;26.10;8.63;;;15.00;99.90;;;;;;5091922;28;20387;-58
2023/09/12 02:33:40;;;;;;;22.00;8.75;;;20.00;99.90;;;;;;5091866;28;20016;-53
2023/09/12 02:36:06;;;;;;;28.52;8.48;;;18.60;99.90;;;;;;5091825;28;20477;-55
2023/09/12 02:38:32;;;;;;;24.65;8.52;;;18.90;99.90;;;;;;5091743;28;20081;-56
2023/09/12 02:40:58;;;;;;;28.45;10.23;;;;;;;;;;5091720;28;20016;-58
2023/09/12 02:43:24;;;;;;;23.92;7.97;;;18.50;99.90;;;;;;5091387;28;20050;-58
2023/09/12 02:45:50;;;;;;;35.15;9.25;;;;;;;;;;5092321;28;20032;-58
2023/09/12 02:48:15;;;;;;;25.27;9.60;;;17.90;99.90;;;;;;5094791;28;20019;-55
2023/09/12 02:50:41;;;;;;;25.40;9.60;;;19.50;99.90;;;;;;5097722;28;20046;-58
2023/09/12 02:53:07;;;;;;;29.90;9.15;;;18.80;99.90;;;;;;5106577;28;20024;-60
2023/09/12 02:55:33;;;;;;;31.67;10.63;;;19.00;99.90;;;;;;5102726;28;20031;-57
2023/09/12 02:57:58;;;;;;;25.48;9.48;;;20.20;99.90;;;;;;5111676;28;20020;-61
2023/09/12 03:00:24;;;;;;;31.38;9.95;;;14.60;99.90;;;;;;5111766;28;20024;-61
2023/09/12 03:02:50;;;;;;;32.22;10.57;;;18.70;99.90;;;;;;5097327;28;20024;-60
2023/09/12 03:05:15;;;;;;;27.27;10.10;;;18.20;99.90;;;;;;5111633;28;20041;-52
2023/09/12 03:07:41;;;;;;;28.48;9.85;;;;;;;;;;5111549;28;20030;-61
2023/09/12 03:10:08;;;;;;;29.00;9.57;;;;;;;;;;5110129;28;20460;-60
2023/09/12 03:12:36;;;;;;;26.88;9.55;;;18.70;99.90;;;;;;5111736;28;20488;-56
2023/09/12 03:15:02;;;;;;;26.13;9.02;;;18.90;99.90;;;;;;5111399;28;20038;-59
2023/09/12 03:17:28;;;;;;;27.92;10.05;;;17.50;99.90;;;;;;5111749;28;20194;-60
2023/09/12 03:19:54;;;;;;;25.88;9.43;;;14.50;99.90;;;;;;5095427;28;20031;-59
2023/09/12 03:22:20;;;;;;;25.73;8.82;;;18.80;99.90;;;;;;5111370;28;20152;-57
2023/09/12 03:24:46;;;;;;;30.70;9.63;;;;;;;;;;5111234;28;20034;-57
2023/09/12 03:27:11;;;;;;;25.50;8.93;;;19.40;99.90;;;;;;5111295;28;20015;-54
2023/09/12 03:29:37;;;;;;;25.23;8.27;;;18.60;99.90;;;;;;5111364;28;20031;-55
2023/09/12 03:32:03;;;;;;;21.38;8.32;;;17.70;99.90;;;;;;5111066;28;20112;-61
2023/09/12 03:34:29;;;;;;;25.50;8.35;;;;;;;;;;5111103;28;20387;-47
2023/09/12 03:36:54;;;;;;;28.40;8.43;;;18.70;99.90;;;;;;5111069;28;20077;-59
2023/09/12 03:39:20;;;;;;;23.13;8.18;;;;;;;;;;5111104;28;20020;-61
2023/09/12 03:41:46;;;;;;;18.92;8.57;;;20.10;99.90;;;;;;5111148;28;20020;-55
2023/09/12 03:44:12;;;;;;;23.10;8.50;;;18.30;99.90;;;;;;5110902;28;20449;-57
2023/09/12 03:46:37;;;;;;;22.52;8.85;;;18.90;99.90;;;;;;5109564;28;20070;-55
2023/09/12 03:49:03;;;;;;;20.10;7.40;;;;;;;;;;5094244;28;20060;-52
2023/09/12 03:51:29;;;;;;;23.38;8.18;;;18.20;99.90;;;;;;5090467;28;20134;-52
2023/09/12 03:53:54;;;;;;;21.90;8.75;;;19.80;99.90;;;;;;5090440;28;20021;-59
2023/09/12 03:56:20;;;;;;;22.00;8.25;;;18.50;99.90;;;;;;5110464;28;20024;-58
2023/09/12 03:58:46;;;;;;;20.85;9.13;;;18.90;99.90;;;;;;5110346;28;20387;-61
2023/09/12 04:01:11;;;;;;;19.17;8.57;;;17.80;99.90;;;;;;5110841;28;20031;-61
2023/09/12 04:03:37;;;;;;;18.17;7.45;;;17.80;99.90;;;;;;5110734;28;20152;-57
2023/09/12 04:06:03;;;;;;;20.75;8.27;;;17.80;99.90;;;;;;5110550;28;20028;-60
2023/09/12 04:08:28;;;;;;;19.90;8.25;;;17.80;99.90;;;;;;5110816;28;20429;-59
2023/09/12 04:10:54;;;;;;;19.75;7.93;;;17.80;99.90;;;;;;5110831;28;20098;-57
2023/09/12 04:13:20;;;;;;;25.65;8.93;;;17.80;99.90;;;;;;5110768;28;20012;-49
2023/09/12 04:15:45;;;;;;;18.52;7.95;;;17.80;99.90;;;;;;5110901;28;20153;-53
2023/09/12 04:18:11;;;;;;;19.65;8.10;;;17.80;99.90;;;;;;5110611;28;20031;-51
2023/09/12 04:20:37;;;;;;;22.83;8.85;;;17.90;99.90;;;;;;5110786;28;20050;-51
2023/09/12 04:23:03;;;;;;;24.65;9.20;;;17.80;99.90;;;;;;5110599;28;20112;-56
2023/09/12 04:25:30;;;;;;;22.92;9.18;;;17.90;99.90;;;;;;5110832;28;20069;-52
2023/09/12 04:27:55;;;;;;;25.10;8.85;;;17.90;99.90;;;;;;5110454;28;20095;-49
2023/09/12 04:30:21;;;;;;;26.17;9.80;;;17.90;99.90;;;;;;5110486;28;20095;-58
2023/09/12 04:32:47;;;;;;;22.40;8.80;;;17.90;99.90;;;;;;5110431;28;20019;-47
2023/09/12 04:35:13;;;;;;;22.58;8.30;;;17.90;99.90;;;;;;5110431;28;20387;-53
2023/09/12 04:37:38;;;;;;;22.90;8.88;;;17.90;99.90;;;;;;5110560;28;20449;-47
2023/09/12 04:40:06;;;;;;;23.45;8.88;;;18.00;99.90;;;;;;5110351;28;20039;-58
2023/09/12 04:42:32;;;;;;;25.33;9.88;;;18.00;99.90;;;;;;5110492;28;20504;-59
2023/09/12 04:44:57;;;;;;;26.67;10.68;;;18.00;99.90;;;;;;5110334;28;20035;-58
2023/09/12 04:47:23;;;;;;;26.25;9.38;;;18.00;99.90;;;;;;5108946;28;20026;-53
2023/09/12 04:49:49;;;;;;;22.52;8.95;;;18.00;99.90;;;;;;5110293;28;20032;-61
2023/09/12 04:52:14;;;;;;;27.30;9.45;;;18.00;99.90;;;;;;5110219;28;20020;-55
2023/09/12 04:54:40;;;;;;;21.98;9.55;;;18.00;99.90;;;;;;5082082;28;20088;-57
2023/09/12 04:57:07;;;;;;;21.10;9.20;;;18.00;99.90;;;;;;5110526;28;20387;-56
2023/09/12 04:59:32;;;;;;;21.80;9.40;;;18.00;99.90;;;;;;5110243;28;20141;-59
2023/09/12 05:01:58;;;;;;;19.30;7.97;;;18.00;99.90;;;;;;5110349;28;20053;-54
2023/09/12 05:04:24;;;;;;;24.48;8.93;;;18.00;99.90;;;;;;5110076;28;20737;-62
2023/09/12 05:06:49;;;;;;;25.45;9.70;;;17.90;99.90;;;;;;5110272;28;20392;-61
2023/09/12 05:09:15;;;;;;;20.70;8.27;;;18.00;99.90;;;;;;5110455;28;20076;-59
2023/09/12 05:11:41;;;;;;;21.88;8.93;;;18.00;99.90;;;;;;5112879;28;20106;-60
2023/09/12 05:14:06;;;;;;;28.90;10.27;;;18.00;99.90;;;;;;5113847;28;20027;-57
2023/09/12 05:16:32;;;;;;;27.33;9.23;;;18.00;99.90;;;;;;5113769;28;20115;-62
2023/09/12 05:18:57;;;;;;;28.40;9.75;;;18.00;99.90;;;;;;5113750;28;20028;-60
2023/09/12 05:21:23;;;;;;;26.15;9.52;;;17.60;99.90;;;;;;5112354;28;20042;-59
2023/09/12 05:23:49;;;;;;;26.98;9.57;;;17.90;99.90;;;;;;5113668;28;20020;-60
2023/09/12 05:26:14;;;;;;;27.50;10.43;;;17.90;99.90;;;;;;5113632;28;20035;-54
2023/09/12 05:28:41;;;;;;;30.73;10.48;;;17.90;99.90;;;;;;5113443;28;20484;-60
2023/09/12 05:31:06;;;;;;;28.13;10.07;;;17.80;99.90;;;;;;5100652;28;20073;-49
2023/09/12 05:33:32;;;;;;;27.17;9.77;;;17.70;99.90;;;;;;5103234;28;20028;-56
2023/09/12 05:35:58;;;;;;;25.88;9.85;;;17.70;99.90;;;;;;5092984;28;20035;-58
2023/09/12 05:38:23;;;;;;;21.73;9.68;;;17.60;99.90;;;;;;5092870;28;20020;-59
2023/09/12 05:40:49;;;;;;;20.33;8.85;;;17.60;99.90;;;;;;5092774;28;20031;-46
2023/09/12 05:43:16;;;;;;;23.02;9.82;;;17.60;99.90;;;;;;5092772;28;20048;-61
2023/09/12 05:45:42;;;;;;;19.30;8.40;;;17.60;99.90;;;;;;5093629;28;20032;-60
2023/09/12 05:48:09;;;;;;;28.90;8.98;;;17.60;99.90;;;;;;5106069;28;20080;-59
2023/09/12 05:50:36;;;;;;;24.75;8.88;;;17.60;99.90;;;;;;5108330;27;20036;-63
2023/09/12 05:53:02;;;;;;;20.63;8.65;;;17.60;99.90;;;;;;5092683;28;20016;-61
2023/09/12 05:55:28;;;;;;;21.95;8.68;;;17.60;99.90;;;;;;5105524;28;20085;-57
2023/09/12 05:57:53;;;;;;;22.40;9.43;;;17.70;99.90;;;;;;5112791;28;20019;-41
2023/09/12 06:00:20;;;;;;;21.00;9.23;;;17.70;99.90;;;;;;5112721;28;20027;-44
2023/09/12 06:02:47;;;;;;;25.98;9.43;;;17.70;99.90;;;;;;5112711;28;20024;-41
2023/09/12 06:05:12;;;;;;;21.27;8.27;;;17.70;99.90;;;;;;5112677;28;20031;-41
2023/09/12 06:07:40;;;;;;;24.00;9.35;;;17.70;99.90;;;;;;5112464;28;20019;-56
2023/09/12 06:10:06;;;;;;;18.63;8.25;;;17.70;99.90;;;;;;5112879;28;20022;-53
2023/09/12 06:12:32;;;;;;;25.95;8.75;;;17.70;99.90;;;;;;5112752;28;20016;-61
2023/09/12 06:14:59;;;;;;;18.95;8.50;;;17.80;99.90;;;;;;5112452;27;20068;-52
2023/09/12 06:17:24;;;;;;;23.27;9.05;;;17.80;99.90;;;;;;5112579;28;20032;-59
2023/09/12 06:19:51;;;;;;;22.00;8.65;;;17.90;99.90;;;;;;5112634;28;20016;-58
2023/09/12 06:22:17;;;;;;;19.48;8.15;;;17.90;99.90;;;;;;5112184;28;20141;-58
2023/09/12 06:24:43;;;;;;;23.23;8.85;;;17.90;99.90;;;;;;5112285;28;20130;-62
2023/09/12 06:27:10;;;;;;;23.27;8.52;;;17.90;99.90;;;;;;5112474;28;20092;-53
2023/09/12 06:29:35;;;;;;;19.15;7.90;;;18.00;99.90;;;;;;5111766;28;20110;-59
2023/09/12 06:32:02;;;;;;;16.70;8.35;;;17.90;99.90;;;;;;5092223;28;20599;-56
2023/09/12 06:34:27;;;;;;;19.77;7.75;;;17.90;99.90;;;;;;5091810;28;20035;-61
2023/09/12 06:36:53;;;;;;;18.48;7.93;;;17.90;99.90;;;;;;5091598;28;20390;-60
2023/09/12 06:39:19;;;;;;;19.52;7.95;;;17.90;99.90;;;;;;5091777;28;20020;-57
2023/09/12 06:41:44;;;;;;;20.30;9.25;;;17.90;99.90;;;;;;5091444;28;20077;-56
2023/09/12 06:44:10;;;;;;;19.63;8.93;;;17.90;99.90;;;;;;5078711;28;20044;-61
2023/09/12 06:46:37;;;;;;;18.95;8.27;;;17.90;99.90;;;;;;5104592;28;20041;-52
2023/09/12 06:49:03;;;;;;;17.25;7.72;;;17.90;99.90;;;;;;5091712;28;20052;-62
2023/09/12 06:51:29;;;;;;;20.83;8.52;;;18.00;99.90;;;;;;5091276;28;20055;-57
2023/09/12 06:53:54;;;;;;;21.80;8.68;;;18.00;99.90;;;;;;5091388;28;20028;-54
2023/09/12 06:56:21;;;;;;;23.15;8.90;;;18.00;99.90;;;;;;5144487;27;20026;-61
2023/09/12 06:58:47;;;;;;;23.42;8.60;;;18.10;99.90;;;;;;5111782;28;20020;-61
2023/09/12 07:01:13;;;;;;;18.70;9.10;;;18.20;99.90;;;;;;5111652;28;20030;-61
2023/09/12 07:03:39;;;;;;;20.15;7.55;;;18.20;99.90;;;;;;5111272;28;20016;-46
2023/09/12 07:06:05;;;;;;;20.08;8.18;;;18.30;99.90;;;;;;5095027;28;20040;-62
2023/09/12 07:08:31;;;;;;;20.02;7.40;;;18.40;99.90;;;;;;5091193;28;20020;-59
2023/09/12 07:10:59;;;;;;;16.80;8.18;;;18.40;99.90;;;;;;5096198;28;20019;-61
2023/09/12 07:13:25;;;;;;;20.60;8.57;;;18.50;99.90;;;;;;5082457;28;20012;-56
2023/09/12 07:15:51;;;;;;;17.95;8.07;;;18.50;99.90;;;;;;5092019;28;20035;-57
2023/09/12 07:18:17;;;;;;;19.75;7.97;;;18.60;99.90;;;;;;5096239;28;20392;-57
2023/09/12 07:20:43;;;;;;;21.25;7.60;;;18.50;99.90;;;;;;5097014;28;20476;-48
2023/09/12 07:23:08;;;;;;;20.98;8.48;;;18.50;99.90;;;;;;5100690;28;20053;-59
2023/09/12 07:25:41;;;;;;;19.77;8.23;;;18.60;99.90;;;;;;5099695;28;20032;-59
2023/09/12 07:28:08;;;;;;;16.30;8.07;;;18.60;99.90;;;;;;5103457;28;20035;-58
2023/09/12 07:30:34;;;;;;;18.05;7.82;;;18.60;99.90;;;;;;5108318;28;20530;-59
2023/09/12 07:32:59;;;;;;;17.30;7.93;;;18.70;99.90;;;;;;5109604;28;20047;-58
2023/09/12 07:35:25;;;;;;;20.63;8.00;;;18.70;99.90;;;;;;5093964;28;20034;-57
2023/09/12 07:37:51;;;;;;;17.23;7.63;;;18.80;99.90;;;;;;5109502;28;20030;-55
2023/09/12 07:40:16;;;;;;;17.70;8.10;;;18.70;99.90;;;;;;5097046;28;20027;-43
2023/09/12 07:42:42;;;;;;;18.67;8.70;;;18.70;99.90;;;;;;5090437;28;20133;-52
2023/09/12 07:45:08;;;;;;;21.52;7.95;;;18.80;99.90;;;;;;5090573;28;20188;-43
2023/09/12 07:47:34;;;;;;;16.42;7.28;;;18.80;99.90;;;;;;5090688;28;20439;-50
2023/09/12 07:50:03;;;;;;;19.73;8.65;;;18.90;99.90;;;;;;5090336;28;20046;-59
2023/09/12 07:52:29;;;;;;;18.65;7.47;;;18.90;99.90;;;;;;5090563;28;20024;-59
2023/09/12 07:55:02;;;;;;;17.42;7.78;;;19.10;99.90;;;;;;5098641;28;20031;-52
2023/09/12 07:57:29;;;;;;;19.48;7.20;;;19.20;99.90;;;;;;5108055;28;20011;-53
2023/09/12 07:59:55;;;;;;;13.40;6.80;;;19.30;99.90;;;;;;5090442;28;20032;-61
2023/09/12 08:02:21;;;;;;;15.77;7.00;;;19.90;99.90;;;;;;5090551;28;20024;-59
2023/09/12 08:04:46;;;;;;;16.73;6.97;;;19.40;99.90;;;;;;5090054;28;20123;-61
2023/09/12 08:07:12;;;;;;;16.08;7.07;;;19.50;99.90;;;;;;5090300;28;20101;-57
2023/09/12 08:09:59;;;;;;;15.02;6.90;;;19.40;99.90;;;;;;5097489;28;20040;-53
2023/09/12 08:12:27;;;;;;;13.05;6.13;;;20.00;99.90;;;;;;5090139;28;20539;-58
2023/09/12 08:14:56;;;;;;;16.92;6.57;;;19.60;99.90;;;;;;5095207;28;20495;-61
2023/09/12 08:17:22;;;;;;;16.23;6.85;;;20.30;99.90;;;;;;5104516;28;20093;-55
2023/09/12 08:19:48;;;;;;;12.55;6.30;;;20.10;99.90;;;;;;5099372;28;20050;-46
2023/09/12 08:22:14;;;;;;;16.13;6.90;;;20.20;99.90;;;;;;5092156;28;20020;-56
2023/09/12 08:24:40;;;;;;;14.00;6.18;;;20.20;99.90;;;;;;5096542;28;20058;-54
2023/09/12 08:27:06;;;;;;;13.70;5.78;;;20.20;99.90;;;;;;5094571;28;20042;-59
2023/09/12 08:29:33;;;;;;;16.05;6.25;;;20.20;99.90;;;;;;5090122;28;20024;-56
2023/09/12 08:31:59;;;;;;;15.15;6.53;;;20.10;99.90;;;;;;5092944;28;20107;-53
2023/09/12 08:34:26;;;;;;;12.50;6.30;;;20.10;99.90;;;;;;5098918;28;20071;-55
2023/09/12 08:36:51;;;;;;;12.20;5.85;;;20.00;99.90;;;;;;5100434;28;20024;-53
2023/09/12 08:39:23;;;;;;;12.45;5.45;;;20.00;99.90;;;;;;5106331;28;20019;-54
2023/09/12 08:41:49;;;;;;;10.48;5.07;;;20.00;99.90;;;;;;5100067;28;20028;-53
2023/09/12 08:44:15;;;;;;;9.95;5.45;;;18.40;99.90;;;;;;5093202;28;20040;-60
2023/09/12 08:46:45;;;;;;;9.45;4.90;;;20.00;99.90;;;;;;5110037;28;20028;-53
2023/09/12 08:49:11;;;;;;;10.15;4.35;;;20.00;99.90;;;;;;5095195;28;20074;-59
2023/09/12 08:51:38;;;;;;;10.93;4.90;;;20.00;99.90;;;;;;5108153;28;20027;-61
2023/09/12 08:54:06;;;;;;;8.75;4.20;;;20.00;99.90;;;;;;5096707;28;20036;-54
2023/09/12 08:56:39;;;;;;;14.07;5.32;;;20.10;99.90;;;;;;5095666;28;20092;-49
2023/09/12 08:59:06;;;;;;;9.07;4.88;;;21.40;99.90;;;;;;5109852;28;20063;-57
2023/09/12 09:01:33;;;;;;;9.07;4.22;;;20.20;99.90;;;;;;5100056;28;20015;-60
2023/09/12 09:04:03;;;;;;;8.98;5.07;;;20.40;99.90;;;;;;5113461;28;20472;-52
2023/09/12 09:06:31;;;;;;;10.93;5.15;;;20.50;99.90;;;;;;5095240;28;20047;-51
2023/09/12 09:08:58;;;;;;;7.75;4.88;;;20.80;99.90;;;;;;5095414;28;20109;-59
2023/09/12 09:11:27;;;;;;;11.85;5.57;;;21.40;99.90;;;;;;5109751;28;20089;-61
2023/09/12 09:13:53;;;;;;;9.25;4.07;;;21.90;99.90;;;;;;5103907;28;20080;-61
2023/09/12 09:16:21;;;;;;;8.88;4.10;;;22.40;99.90;;;;;;5110957;28;20032;-58
2023/09/12 09:18:59;;;;;;;9.90;5.25;;;22.70;99.90;;;;;;5102718;28;20023;-59
2023/09/12 09:21:27;;;;;;;6.72;3.80;;;23.50;99.90;;;;;;5093363;28;20054;-52
2023/09/12 09:23:54;;;;;;;7.97;3.50;;;24.10;99.90;;;;;;5093301;28;20035;-58
2023/09/12 09:26:20;;;;;;;6.88;3.50;;;24.10;99.90;;;;;;5097965;28;20032;-57
2023/09/12 09:29:08;;;;;;;6.85;3.08;;;24.00;99.90;;;;;;5095018;28;20029;-58
2023/09/12 09:31:34;;;;;;;7.00;2.63;;;23.90;99.90;;;;;;5092944;28;20476;-59
2023/09/12 09:34:01;;;;;;;3.28;1.90;;;23.90;99.90;;;;;;5092954;28;20464;-58
2023/09/12 09:36:28;;;;;;;4.57;2.15;;;23.70;99.90;;;;;;5093060;28;20051;-55
2023/09/12 09:38:59;;;;;;;2.80;1.85;;;23.70;99.90;;;;;;5093039;28;20032;-58
2023/09/12 09:41:26;;;;;;;4.38;1.80;;;23.80;99.90;;;;;;5092885;28;20081;-56
2023/09/12 09:43:52;;;;;;;3.30;1.90;;;23.80;99.90;;;;;;5092605;28;20540;-61
2023/09/12 09:46:18;;;;;;;3.20;2.00;;;;;;;;;;5092856;28;20042;-54
2023/09/12 09:48:51;;;;;;;2.72;1.55;;;26.20;99.90;;;;;;5091403;28;20039;-53
2023/09/12 09:51:18;;;;;;;5.90;1.95;;;24.10;99.90;;;;;;5092513;28;20024;-60
2023/09/12 09:53:43;;;;;;;3.25;1.67;;;24.00;99.90;;;;;;5092526;28;20024;-56
2023/09/12 09:56:15;;;;;;;4.57;2.25;;;24.40;99.90;;;;;;5110368;28;20019;-54
2023/09/12 09:58:52;;;;;;;2.17;1.38;;;25.10;99.90;;;;;;5113189;28;20081;-59
2023/09/12 10:01:23;;;;;;;4.53;1.80;;;25.50;99.90;;;;;;5111646;28;20476;-59
2023/09/12 10:03:50;;;;;;;2.90;1.65;;;25.50;99.90;;;;;;5112936;28;20108;-60
2023/09/12 10:06:20;;;;;;;2.42;1.35;;;25.40;99.90;;;;;;5108457;28;20075;-60
2023/09/12 10:08:51;;;;;;;3.92;1.63;;;25.50;99.90;;;;;;5097444;28;20055;-60
2023/09/12 10:11:19;;;;;;;4.10;1.67;;;25.60;99.90;;;;;;5109128;28;20028;-55
2023/09/12 10:13:59;;;;;;;4.15;1.55;;;26.50;99.90;;;;;;5112311;28;20099;-55
2023/09/12 10:16:33;;;;;;;3.95;1.90;;;25.60;99.90;;;;;;5108603;28;20016;-60
2023/09/12 10:19:21;;;;;;;2.67;1.63;;;25.50;99.90;;;;;;5093912;28;20396;-57
2023/09/12 10:22:16;;;;;;;3.55;2.00;;;25.30;99.90;;;;;;5080771;28;20024;-56
2023/09/12 10:24:43;;;;;;;3.17;1.60;;;25.40;99.90;;;;;;5089800;28;20031;-54
2023/09/12 10:27:11;;;;;;;2.53;1.30;;;25.50;99.90;;;;;;5091349;28;20055;-51
2023/09/12 10:29:36;;;;;;;2.95;1.17;;;26.30;99.90;;;;;;5091602;28;20051;-54
2023/09/12 10:32:02;;;;;;;3.35;1.77;;;27.10;99.90;;;;;;5091795;28;20074;-59
2023/09/12 10:34:31;;;;;;;2.35;1.30;;;27.60;99.90;;;;;;5091777;28;20067;-52
2023/09/12 10:36:59;;;;;;;3.42;1.88;;;27.70;99.90;;;;;;5086967;28;20048;-57
2023/09/12 10:39:27;;;;;;;2.73;1.50;;;27.20;99.90;;;;;;5090355;28;20032;-59
2023/09/12 10:41:54;;;;;;;3.60;1.55;;;26.80;99.90;;;;;;5078184;28;20028;-56
2023/09/12 10:44:21;;;;;;;3.95;1.25;;;26.20;99.90;;;;;;5091530;28;20044;-61
2023/09/12 10:46:48;;;;;;;1.60;1.10;;;26.00;99.90;;;;;;5089837;28;20028;-59
2023/09/12 10:49:15;;;;;;;1.15;0.73;;;25.90;99.90;;;;;;5091050;28;20028;-57
2023/09/12 10:51:43;;;;;;;1.52;0.95;;;26.20;99.90;;;;;;5081667;28;20032;-58
2023/09/12 10:54:12;;;;;;;1.42;0.80;;;25.20;99.90;;;;;;5088600;28;20028;-57
2023/09/12 10:56:37;;;;;;;;;;;25.10;99.90;;;;;;5103338;28;20490;-52
2023/09/12 10:59:12;;;;;;;1.83;0.80;;;24.80;99.90;;;;;;5095354;28;20010;-50
2023/09/12 11:01:46;;;;;;;4.10;1.33;;;24.70;99.90;;;;;;5083563;28;20069;-59
2023/09/12 11:04:24;;;;;;;2.05;1.00;;;25.00;99.90;;;;;;5090736;28;20427;-59
2023/09/12 11:06:50;;;;;;;1.70;0.90;;;25.00;99.90;;;;;;5090773;28;20523;-62
2023/09/12 11:09:19;;;;;;;1.83;0.80;;;25.10;99.90;;;;;;5088211;28;20096;-50
2023/09/12 11:11:49;;;;;;;1.70;0.90;;;25.40;99.90;;;;;;5092866;28;20573;-58
2023/09/12 11:14:16;;;;;;;1.73;0.88;;;27.10;99.90;;;;;;5088906;28;20020;-59
2023/09/12 11:16:43;;;;;;;2.03;0.98;;;27.10;99.90;;;;;;5095971;28;20024;-54
2023/09/12 11:19:15;;;;;;;1.77;1.27;;;28.10;99.90;;;;;;5094417;28;20036;-54
2023/09/12 11:21:52;;;;;;;2.25;1.25;;;29.30;99.90;;;;;;5093781;28;20027;-51
2023/09/12 11:24:18;;;;;;;2.85;1.33;;;28.40;99.90;;;;;;5090953;28;20015;-58
2023/09/12 11:38:43;;;;;;;4.95;2.15;;;29.10;99.90;;;;;;5135082;27;20395;-59
2023/09/12 11:41:09;;;;;;;2.67;1.55;;;29.00;99.90;;;;;;5136638;27;20072;-44
2023/09/12 11:43:38;;;;;;;2.72;2.00;;;29.00;99.90;;;;;;5140577;27;20019;-54
2023/09/12 11:46:04;;;;;;;5.60;1.75;;;28.90;99.90;;;;;;5131749;27;20430;-52
2023/09/12 11:48:29;;;;;;;2.50;1.73;;;28.70;99.90;;;;;;5146849;27;20041;-51
2023/09/12 11:50:56;;;;;;;2.95;1.80;;;28.60;99.90;;;;;;5142275;27;20023;-46
2023/09/12 11:53:29;;;;;;;2.83;1.67;;;28.10;99.90;;;;;;5136257;27;20027;-44
2023/09/12 11:55:57;;;;;;;3.40;1.98;;;28.10;99.90;;;;;;5132978;27;20026;-48
2023/09/12 11:58:25;;;;;;;2.70;1.30;;;26.50;99.90;;;;;;5140635;27;20056;-51
2023/09/12 12:00:52;;;;;;;2.60;1.48;;;27.60;99.90;;;;;;5131196;27;20065;-43
2023/09/12 12:03:20;;;;;;;2.22;1.13;;;27.40;99.90;;;;;;5134132;27;20039;-46
2023/09/12 12:05:47;;;;;;;1.83;1.25;;;26.70;99.90;;;;;;5133764;27;20482;-46
2023/09/12 12:08:14;;;;;;;3.22;1.30;;;26.20;99.90;;;;;;5137500;27;20080;-52
2023/09/12 12:10:40;;;;;;;2.80;1.60;;;25.80;99.90;;;;;;5138378;27;20019;-50
2023/09/12 12:13:17;;;;;;;1.45;1.00;;;25.50;99.90;;;;;;5134763;27;20065;-53
2023/09/12 12:15:42;;;;;;;2.13;1.08;;;;;;;;;;5132075;27;20042;-48
2023/09/12 12:18:08;;;;;;;1.30;0.82;;;24.80;99.90;;;;;;5137679;27;20023;-54
2023/09/12 12:20:34;;;;;;;1.40;1.00;;;24.60;99.90;;;;;;5131248;27;20027;-53
2023/09/12 12:22:59;;;;;;;1.35;0.82;;;24.60;99.90;;;;;;5141362;27;20478;-50
2023/09/12 12:25:25;;;;;;;1.95;1.10;;;25.10;99.90;;;;;;5138279;27;20023;-49
2023/09/12 12:27:51;;;;;;;1.83;1.10;;;26.80;99.90;;;;;;5133804;27;20057;-51
2023/09/12 12:30:18;;;;;;;1.88;1.13;;;26.40;99.90;;;;;;5140936;27;20027;-48
2023/09/12 12:32:46;;;;;;;2.88;1.30;;;26.40;99.90;;;;;;5134571;27;20023;-49
2023/09/12 12:35:23;;;;;;;3.33;1.60;;;26.20;99.90;;;;;;5140220;27;20031;-43
2023/09/12 12:37:50;;;;;;;1.88;1.25;;;25.80;99.90;;;;;;5133430;27;20095;-52
2023/09/12 12:40:16;;;;;;;1.38;0.90;;;25.40;99.90;;;;;;5123974;27;20090;-44
2023/09/12 12:42:43;;;;;;;1.83;1.05;;;25.10;99.90;;;;;;5123139;27;20026;-47
2023/09/12 12:45:18;;;;;;;1.73;1.10;;;24.80;99.90;;;;;;5109222;27;20035;-44
2023/09/12 12:47:47;;;;;;;9.23;2.38;;;24.40;99.90;;;;;;5119417;27;20130;-47
2023/09/12 12:50:19;;;;;;;5.45;1.83;;;23.80;99.90;;;;;;5124511;27;20499;-53
2023/09/12 12:52:47;;;;;;;2.92;1.30;;;23.80;99.90;;;;;;5121898;27;20036;-46
2023/09/12 12:55:14;;;;;;;3.80;1.60;;;23.50;99.90;;;;;;5117729;27;20012;-49
2023/09/12 12:57:42;;;;;;;3.83;1.63;;;22.70;99.90;;;;;;5126215;27;20042;-46
2023/09/12 13:00:18;;;;;;;4.57;1.70;;;22.80;99.90;;;;;;5121410;27;20023;-52